sensor_id;sensor_type;location;lat;lon;timestamp;P1;durP1;ratioP1;P2;durP2;ratioP2
71207;SDS011;58938;49.868;8.646;2022-07-29T00:00:37;7.93;;;5.13;;
71207;SDS011;58938;49.868;8.646;2022-07-29T00:03:03;8.73;;;3.87;;
71207;SDS011;58938;49.868;8.646;2022-07-29T00:05:29;9.80;;;3.77;;
71207;SDS011;58938;49.868;8.646;2022-07-29T00:07:54;6.00;;;3.47;;
71207;SDS011;58938;49.868;8.646;2022-07-29T00:10:20;7.30;;;3.40;;
71207;SDS011;58938;49.868;8.646;2022-07-29T00:12:46;7.20;;;3.28;;
71207;SDS011;58938;49.868;8.646;2022-07-29T00:15:11;7.17;;;3.50;;
71207;SDS011;58938;49.868;8.646;2022-07-29T00:17:37;6.63;;;3.50;;
71207;SDS011;58938;49.868;8.646;2022-07-29T00:20:03;7.13;;;3.63;;
71207;SDS011;58938;49.868;8.646;2022-07-29T00:22:29;7.85;;;4.10;;
71207;SDS011;58938;49.868;8.646;2022-07-29T00:24:54;7.60;;;3.83;;
71207;SDS011;58938;49.868;8.646;2022-07-29T00:27:20;8.75;;;3.60;;
71207;SDS011;58938;49.868;8.646;2022-07-29T00:29:46;7.32;;;3.42;;
71207;SDS011;58938;49.868;8.646;2022-07-29T00:32:12;5.13;;;3.00;;
71207;SDS011;58938;49.868;8.646;2022-07-29T00:34:37;6.07;;;3.20;;
71207;SDS011;58938;49.868;8.646;2022-07-29T00:37:22;5.63;;;3.88;;
71207;SDS011;58938;49.868;8.646;2022-07-29T00:39:48;6.68;;;3.88;;
71207;SDS011;58938;49.868;8.646;2022-07-29T00:42:13;6.53;;;3.40;;
71207;SDS011;58938;49.868;8.646;2022-07-29T00:44:39;6.80;;;3.83;;
71207;SDS011;58938;49.868;8.646;2022-07-29T00:47:06;6.97;;;4.07;;
71207;SDS011;58938;49.868;8.646;2022-07-29T00:49:33;8.82;;;3.80;;
71207;SDS011;58938;49.868;8.646;2022-07-29T00:52:00;8.43;;;3.17;;
71207;SDS011;58938;49.868;8.646;2022-07-29T00:54:27;8.98;;;3.20;;
71207;SDS011;58938;49.868;8.646;2022-07-29T00:56:54;7.45;;;3.42;;
71207;SDS011;58938;49.868;8.646;2022-07-29T00:59:21;5.90;;;3.13;;
71207;SDS011;58938;49.868;8.646;2022-07-29T01:01:46;8.40;;;3.42;;
71207;SDS011;58938;49.868;8.646;2022-07-29T01:04:12;9.47;;;3.63;;
71207;SDS011;58938;49.868;8.646;2022-07-29T01:06:38;14.33;;;3.23;;
71207;SDS011;58938;49.868;8.646;2022-07-29T01:09:03;11.75;;;2.80;;
71207;SDS011;58938;49.868;8.646;2022-07-29T01:11:29;10.15;;;3.50;;
71207;SDS011;58938;49.868;8.646;2022-07-29T01:13:55;5.57;;;2.73;;
71207;SDS011;58938;49.868;8.646;2022-07-29T01:16:25;6.68;;;2.65;;
71207;SDS011;58938;49.868;8.646;2022-07-29T01:19:03;7.35;;;3.00;;
71207;SDS011;58938;49.868;8.646;2022-07-29T01:30:12;10.00;;;3.53;;
71207;SDS011;58938;49.868;8.646;2022-07-29T01:32:38;6.03;;;2.67;;
71207;SDS011;58938;49.868;8.646;2022-07-29T01:35:06;13.57;;;4.40;;
71207;SDS011;58938;49.868;8.646;2022-07-29T01:37:43;8.57;;;3.47;;
71207;SDS011;58938;49.868;8.646;2022-07-29T01:40:33;8.65;;;3.20;;
71207;SDS011;58938;49.868;8.646;2022-07-29T01:43:11;5.72;;;3.22;;
71207;SDS011;58938;49.868;8.646;2022-07-29T01:45:48;6.00;;;2.60;;
71207;SDS011;58938;49.868;8.646;2022-07-29T01:48:23;7.83;;;3.43;;
71207;SDS011;58938;49.868;8.646;2022-07-29T01:51:04;6.93;;;3.10;;
71207;SDS011;58938;49.868;8.646;2022-07-29T01:53:46;8.07;;;3.63;;
71207;SDS011;58938;49.868;8.646;2022-07-29T01:56:20;6.68;;;3.17;;
71207;SDS011;58938;49.868;8.646;2022-07-29T01:58:48;8.77;;;3.13;;
71207;SDS011;58938;49.868;8.646;2022-07-29T02:01:16;6.57;;;3.03;;
71207;SDS011;58938;49.868;8.646;2022-07-29T02:03:43;6.65;;;3.17;;
71207;SDS011;58938;49.868;8.646;2022-07-29T02:06:11;8.32;;;3.15;;
71207;SDS011;58938;49.868;8.646;2022-07-29T02:08:39;8.30;;;3.10;;
71207;SDS011;58938;49.868;8.646;2022-07-29T02:11:06;6.97;;;2.80;;
71207;SDS011;58938;49.868;8.646;2022-07-29T02:13:34;6.57;;;3.10;;
71207;SDS011;58938;49.868;8.646;2022-07-29T02:16:02;6.82;;;3.03;;
71207;SDS011;58938;49.868;8.646;2022-07-29T02:18:31;6.35;;;2.83;;
71207;SDS011;58938;49.868;8.646;2022-07-29T02:20:59;6.05;;;3.25;;
71207;SDS011;58938;49.868;8.646;2022-07-29T02:23:25;7.40;;;3.00;;
71207;SDS011;58938;49.868;8.646;2022-07-29T02:25:55;7.10;;;2.80;;
71207;SDS011;58938;49.868;8.646;2022-07-29T02:28:23;8.27;;;3.33;;
71207;SDS011;58938;49.868;8.646;2022-07-29T02:30:52;7.03;;;3.20;;
71207;SDS011;58938;49.868;8.646;2022-07-29T02:33:20;5.35;;;3.15;;
71207;SDS011;58938;49.868;8.646;2022-07-29T02:35:47;9.00;;;3.27;;
71207;SDS011;58938;49.868;8.646;2022-07-29T02:38:15;7.05;;;2.83;;
71207;SDS011;58938;49.868;8.646;2022-07-29T02:41:03;6.90;;;3.40;;
71207;SDS011;58938;49.868;8.646;2022-07-29T02:43:32;9.25;;;3.60;;
71207;SDS011;58938;49.868;8.646;2022-07-29T02:46:00;7.20;;;3.58;;
71207;SDS011;58938;49.868;8.646;2022-07-29T02:48:41;5.77;;;2.90;;
71207;SDS011;58938;49.868;8.646;2022-07-29T02:51:16;8.82;;;4.15;;
71207;SDS011;58938;49.868;8.646;2022-07-29T02:53:45;14.10;;;3.53;;
71207;SDS011;58938;49.868;8.646;2022-07-29T02:56:16;7.38;;;3.17;;
71207;SDS011;58938;49.868;8.646;2022-07-29T02:58:45;6.95;;;3.42;;
71207;SDS011;58938;49.868;8.646;2022-07-29T03:01:15;7.30;;;2.97;;
71207;SDS011;58938;49.868;8.646;2022-07-29T03:03:45;14.70;;;4.05;;
71207;SDS011;58938;49.868;8.646;2022-07-29T03:06:13;7.22;;;3.10;;
71207;SDS011;58938;49.868;8.646;2022-07-29T03:08:40;6.50;;;3.53;;
71207;SDS011;58938;49.868;8.646;2022-07-29T03:11:07;7.15;;;3.55;;
71207;SDS011;58938;49.868;8.646;2022-07-29T03:13:34;7.10;;;2.93;;
71207;SDS011;58938;49.868;8.646;2022-07-29T03:16:00;7.88;;;3.53;;
71207;SDS011;58938;49.868;8.646;2022-07-29T03:18:27;7.50;;;3.42;;
71207;SDS011;58938;49.868;8.646;2022-07-29T03:20:56;8.30;;;3.72;;
71207;SDS011;58938;49.868;8.646;2022-07-29T03:23:23;8.57;;;3.88;;
71207;SDS011;58938;49.868;8.646;2022-07-29T03:25:51;6.07;;;3.37;;
71207;SDS011;58938;49.868;8.646;2022-07-29T03:28:17;8.50;;;3.30;;
71207;SDS011;58938;49.868;8.646;2022-07-29T03:30:43;8.27;;;3.58;;
71207;SDS011;58938;49.868;8.646;2022-07-29T03:33:08;9.50;;;4.30;;
71207;SDS011;58938;49.868;8.646;2022-07-29T03:35:34;9.18;;;3.78;;
71207;SDS011;58938;49.868;8.646;2022-07-29T03:38:00;12.90;;;4.60;;
71207;SDS011;58938;49.868;8.646;2022-07-29T03:40:26;10.45;;;4.05;;
71207;SDS011;58938;49.868;8.646;2022-07-29T03:42:58;10.85;;;4.65;;
71207;SDS011;58938;49.868;8.646;2022-07-29T03:45:25;9.17;;;4.47;;
71207;SDS011;58938;49.868;8.646;2022-07-29T03:47:54;11.50;;;4.50;;
71207;SDS011;58938;49.868;8.646;2022-07-29T03:50:33;11.57;;;4.78;;
71207;SDS011;58938;49.868;8.646;2022-07-29T03:53:00;7.82;;;4.05;;
71207;SDS011;58938;49.868;8.646;2022-07-29T03:55:28;9.15;;;3.70;;
71207;SDS011;58938;49.868;8.646;2022-07-29T03:57:57;11.90;;;4.43;;
71207;SDS011;58938;49.868;8.646;2022-07-29T04:00:25;8.88;;;4.05;;
71207;SDS011;58938;49.868;8.646;2022-07-29T04:02:52;11.77;;;4.00;;
71207;SDS011;58938;49.868;8.646;2022-07-29T04:05:18;8.87;;;3.53;;
71207;SDS011;58938;49.868;8.646;2022-07-29T04:07:44;9.30;;;3.83;;
71207;SDS011;58938;49.868;8.646;2022-07-29T04:10:10;10.57;;;3.88;;
71207;SDS011;58938;49.868;8.646;2022-07-29T04:12:36;6.03;;;3.20;;
71207;SDS011;58938;49.868;8.646;2022-07-29T04:15:03;10.55;;;3.45;;
71207;SDS011;58938;49.868;8.646;2022-07-29T04:17:29;9.55;;;3.58;;
71207;SDS011;58938;49.868;8.646;2022-07-29T04:19:55;12.33;;;3.97;;
71207;SDS011;58938;49.868;8.646;2022-07-29T04:22:20;7.00;;;3.63;;
71207;SDS011;58938;49.868;8.646;2022-07-29T04:24:46;7.10;;;3.17;;
71207;SDS011;58938;49.868;8.646;2022-07-29T04:27:12;7.47;;;3.23;;
71207;SDS011;58938;49.868;8.646;2022-07-29T04:29:37;8.02;;;3.60;;
71207;SDS011;58938;49.868;8.646;2022-07-29T04:32:03;8.53;;;3.37;;
71207;SDS011;58938;49.868;8.646;2022-07-29T04:34:29;8.10;;;3.35;;
71207;SDS011;58938;49.868;8.646;2022-07-29T04:36:54;6.80;;;3.40;;
71207;SDS011;58938;49.868;8.646;2022-07-29T04:39:20;9.57;;;3.80;;
71207;SDS011;58938;49.868;8.646;2022-07-29T04:41:46;9.03;;;4.07;;
71207;SDS011;58938;49.868;8.646;2022-07-29T04:44:12;9.18;;;3.55;;
71207;SDS011;58938;49.868;8.646;2022-07-29T04:46:37;8.02;;;3.38;;
71207;SDS011;58938;49.868;8.646;2022-07-29T04:49:03;8.73;;;3.97;;
71207;SDS011;58938;49.868;8.646;2022-07-29T04:51:29;6.93;;;3.37;;
71207;SDS011;58938;49.868;8.646;2022-07-29T04:53:54;8.55;;;3.53;;
71207;SDS011;58938;49.868;8.646;2022-07-29T04:56:20;9.27;;;3.60;;
71207;SDS011;58938;49.868;8.646;2022-07-29T04:58:45;7.50;;;3.65;;
71207;SDS011;58938;49.868;8.646;2022-07-29T05:01:11;10.37;;;3.40;;
71207;SDS011;58938;49.868;8.646;2022-07-29T05:03:37;13.53;;;3.93;;
71207;SDS011;58938;49.868;8.646;2022-07-29T05:06:02;8.00;;;3.42;;
71207;SDS011;58938;49.868;8.646;2022-07-29T05:08:28;6.20;;;3.47;;
71207;SDS011;58938;49.868;8.646;2022-07-29T05:10:53;10.65;;;3.92;;
71207;SDS011;58938;49.868;8.646;2022-07-29T05:13:19;6.70;;;3.33;;
71207;SDS011;58938;49.868;8.646;2022-07-29T05:15:45;10.75;;;3.80;;
71207;SDS011;58938;49.868;8.646;2022-07-29T05:18:10;9.37;;;4.17;;
71207;SDS011;58938;49.868;8.646;2022-07-29T05:20:36;7.80;;;3.60;;
71207;SDS011;58938;49.868;8.646;2022-07-29T05:23:02;7.90;;;3.60;;
71207;SDS011;58938;49.868;8.646;2022-07-29T05:25:28;8.65;;;3.80;;
71207;SDS011;58938;49.868;8.646;2022-07-29T05:27:54;7.83;;;3.20;;
71207;SDS011;58938;49.868;8.646;2022-07-29T05:30:20;8.77;;;3.63;;
71207;SDS011;58938;49.868;8.646;2022-07-29T05:32:46;37.17;;;7.35;;
71207;SDS011;58938;49.868;8.646;2022-07-29T05:35:12;25.13;;;5.68;;
71207;SDS011;58938;49.868;8.646;2022-07-29T05:37:39;12.93;;;4.10;;
71207;SDS011;58938;49.868;8.646;2022-07-29T05:40:05;12.83;;;4.00;;
71207;SDS011;58938;49.868;8.646;2022-07-29T05:42:31;10.70;;;3.70;;
71207;SDS011;58938;49.868;8.646;2022-07-29T05:44:57;7.78;;;3.80;;
71207;SDS011;58938;49.868;8.646;2022-07-29T05:47:23;8.07;;;3.67;;
71207;SDS011;58938;49.868;8.646;2022-07-29T05:49:49;12.52;;;5.13;;
71207;SDS011;58938;49.868;8.646;2022-07-29T05:52:15;9.77;;;4.60;;
71207;SDS011;58938;49.868;8.646;2022-07-29T05:54:41;31.23;;;5.57;;
71207;SDS011;58938;49.868;8.646;2022-07-29T05:57:07;12.60;;;5.07;;
71207;SDS011;58938;49.868;8.646;2022-07-29T05:59:36;15.60;;;4.50;;
71207;SDS011;58938;49.868;8.646;2022-07-29T06:02:02;12.63;;;4.03;;
71207;SDS011;58938;49.868;8.646;2022-07-29T06:04:30;19.85;;;5.15;;
71207;SDS011;58938;49.868;8.646;2022-07-29T06:06:56;16.00;;;4.70;;
71207;SDS011;58938;49.868;8.646;2022-07-29T06:09:21;10.20;;;4.47;;
71207;SDS011;58938;49.868;8.646;2022-07-29T06:11:47;8.85;;;3.83;;
71207;SDS011;58938;49.868;8.646;2022-07-29T06:14:13;13.93;;;4.47;;
71207;SDS011;58938;49.868;8.646;2022-07-29T06:16:39;10.50;;;3.95;;
71207;SDS011;58938;49.868;8.646;2022-07-29T06:19:05;7.90;;;4.03;;
71207;SDS011;58938;49.868;8.646;2022-07-29T06:21:31;8.67;;;4.30;;
71207;SDS011;58938;49.868;8.646;2022-07-29T06:23:56;12.17;;;4.63;;
71207;SDS011;58938;49.868;8.646;2022-07-29T06:26:22;8.85;;;3.80;;
71207;SDS011;58938;49.868;8.646;2022-07-29T06:28:48;8.73;;;3.93;;
71207;SDS011;58938;49.868;8.646;2022-07-29T06:31:14;7.80;;;3.70;;
71207;SDS011;58938;49.868;8.646;2022-07-29T06:33:39;7.80;;;3.60;;
71207;SDS011;58938;49.868;8.646;2022-07-29T06:36:05;9.60;;;4.63;;
71207;SDS011;58938;49.868;8.646;2022-07-29T06:38:32;8.65;;;3.85;;
71207;SDS011;58938;49.868;8.646;2022-07-29T06:40:58;8.40;;;4.10;;
71207;SDS011;58938;49.868;8.646;2022-07-29T06:43:38;11.43;;;4.70;;
71207;SDS011;58938;49.868;8.646;2022-07-29T06:46:07;6.20;;;3.53;;
71207;SDS011;58938;49.868;8.646;2022-07-29T06:48:35;9.13;;;3.92;;
71207;SDS011;58938;49.868;8.646;2022-07-29T06:51:02;6.40;;;3.58;;
71207;SDS011;58938;49.868;8.646;2022-07-29T06:53:28;7.63;;;3.95;;
71207;SDS011;58938;49.868;8.646;2022-07-29T06:55:54;11.30;;;3.90;;
71207;SDS011;58938;49.868;8.646;2022-07-29T06:58:20;7.38;;;3.40;;
71207;SDS011;58938;49.868;8.646;2022-07-29T07:00:46;11.13;;;4.47;;
71207;SDS011;58938;49.868;8.646;2022-07-29T07:03:12;7.78;;;3.92;;
71207;SDS011;58938;49.868;8.646;2022-07-29T07:05:39;8.52;;;4.13;;
71207;SDS011;58938;49.868;8.646;2022-07-29T07:08:05;9.52;;;4.13;;
71207;SDS011;58938;49.868;8.646;2022-07-29T07:10:30;10.00;;;3.67;;
71207;SDS011;58938;49.868;8.646;2022-07-29T07:12:57;10.02;;;4.28;;
71207;SDS011;58938;49.868;8.646;2022-07-29T07:15:22;9.77;;;4.73;;
71207;SDS011;58938;49.868;8.646;2022-07-29T07:17:48;9.52;;;4.13;;
71207;SDS011;58938;49.868;8.646;2022-07-29T07:20:14;9.35;;;3.58;;
71207;SDS011;58938;49.868;8.646;2022-07-29T07:22:41;10.60;;;4.47;;
71207;SDS011;58938;49.868;8.646;2022-07-29T07:25:07;9.27;;;3.80;;
71207;SDS011;58938;49.868;8.646;2022-07-29T07:27:32;6.38;;;4.20;;
71207;SDS011;58938;49.868;8.646;2022-07-29T07:29:58;10.87;;;4.27;;
71207;SDS011;58938;49.868;8.646;2022-07-29T07:32:24;10.77;;;4.93;;
71207;SDS011;58938;49.868;8.646;2022-07-29T07:34:49;7.23;;;4.47;;
71207;SDS011;58938;49.868;8.646;2022-07-29T07:37:15;10.33;;;4.03;;
71207;SDS011;58938;49.868;8.646;2022-07-29T07:39:41;11.70;;;3.88;;
71207;SDS011;58938;49.868;8.646;2022-07-29T07:42:06;10.70;;;4.83;;
71207;SDS011;58938;49.868;8.646;2022-07-29T07:44:32;10.43;;;4.47;;
71207;SDS011;58938;49.868;8.646;2022-07-29T07:46:58;7.63;;;4.73;;
71207;SDS011;58938;49.868;8.646;2022-07-29T07:49:23;8.68;;;4.03;;
71207;SDS011;58938;49.868;8.646;2022-07-29T07:51:49;8.93;;;4.53;;
71207;SDS011;58938;49.868;8.646;2022-07-29T07:54:14;8.43;;;4.13;;
71207;SDS011;58938;49.868;8.646;2022-07-29T07:56:40;9.27;;;4.35;;
71207;SDS011;58938;49.868;8.646;2022-07-29T07:59:05;9.33;;;4.27;;
71207;SDS011;58938;49.868;8.646;2022-07-29T08:01:31;6.93;;;4.30;;
71207;SDS011;58938;49.868;8.646;2022-07-29T08:03:57;8.60;;;4.23;;
71207;SDS011;58938;49.868;8.646;2022-07-29T08:06:22;9.03;;;4.57;;
71207;SDS011;58938;49.868;8.646;2022-07-29T08:08:49;9.68;;;4.50;;
71207;SDS011;58938;49.868;8.646;2022-07-29T08:11:15;6.97;;;4.68;;
71207;SDS011;58938;49.868;8.646;2022-07-29T08:13:42;9.18;;;4.28;;
71207;SDS011;58938;49.868;8.646;2022-07-29T08:16:08;9.20;;;4.28;;
71207;SDS011;58938;49.868;8.646;2022-07-29T08:18:37;11.03;;;5.50;;
71207;SDS011;58938;49.868;8.646;2022-07-29T08:21:04;7.88;;;4.53;;
71207;SDS011;58938;49.868;8.646;2022-07-29T08:23:30;9.95;;;5.07;;
71207;SDS011;58938;49.868;8.646;2022-07-29T08:26:11;8.00;;;4.45;;
71207;SDS011;58938;49.868;8.646;2022-07-29T08:28:38;7.25;;;4.82;;
71207;SDS011;58938;49.868;8.646;2022-07-29T08:31:05;7.90;;;4.83;;
71207;SDS011;58938;49.868;8.646;2022-07-29T08:33:31;8.43;;;4.68;;
71207;SDS011;58938;49.868;8.646;2022-07-29T08:35:57;9.25;;;4.45;;
71207;SDS011;58938;49.868;8.646;2022-07-29T08:38:23;7.00;;;4.87;;
71207;SDS011;58938;49.868;8.646;2022-07-29T08:40:48;7.97;;;4.50;;
71207;SDS011;58938;49.868;8.646;2022-07-29T08:43:14;8.33;;;4.97;;
71207;SDS011;58938;49.868;8.646;2022-07-29T08:45:45;6.97;;;4.20;;
71207;SDS011;58938;49.868;8.646;2022-07-29T08:48:12;8.07;;;4.68;;
71207;SDS011;58938;49.868;8.646;2022-07-29T08:50:39;6.63;;;4.20;;
71207;SDS011;58938;49.868;8.646;2022-07-29T08:53:07;8.60;;;4.70;;
71207;SDS011;58938;49.868;8.646;2022-07-29T08:55:36;6.53;;;4.20;;
71207;SDS011;58938;49.868;8.646;2022-07-29T08:58:08;9.18;;;4.60;;
71207;SDS011;58938;49.868;8.646;2022-07-29T09:00:35;8.60;;;4.50;;
71207;SDS011;58938;49.868;8.646;2022-07-29T09:03:02;7.30;;;4.50;;
71207;SDS011;58938;49.868;8.646;2022-07-29T09:05:29;8.33;;;4.47;;
71207;SDS011;58938;49.868;8.646;2022-07-29T09:07:57;8.02;;;4.47;;
71207;SDS011;58938;49.868;8.646;2022-07-29T09:10:23;7.63;;;4.50;;
71207;SDS011;58938;49.868;8.646;2022-07-29T09:12:49;7.80;;;4.90;;
71207;SDS011;58938;49.868;8.646;2022-07-29T09:15:15;8.90;;;4.70;;
71207;SDS011;58938;49.868;8.646;2022-07-29T09:17:44;13.75;;;4.93;;
71207;SDS011;58938;49.868;8.646;2022-07-29T09:20:12;9.50;;;4.30;;
71207;SDS011;58938;49.868;8.646;2022-07-29T09:22:40;7.45;;;4.50;;
71207;SDS011;58938;49.868;8.646;2022-07-29T09:25:06;8.23;;;4.97;;
71207;SDS011;58938;49.868;8.646;2022-07-29T09:27:32;8.83;;;4.33;;
71207;SDS011;58938;49.868;8.646;2022-07-29T09:29:59;9.82;;;4.47;;
71207;SDS011;58938;49.868;8.646;2022-07-29T09:32:25;9.63;;;5.40;;
71207;SDS011;58938;49.868;8.646;2022-07-29T09:35:13;8.15;;;4.88;;
71207;SDS011;58938;49.868;8.646;2022-07-29T09:37:42;8.57;;;4.70;;
71207;SDS011;58938;49.868;8.646;2022-07-29T09:40:12;8.47;;;4.27;;
71207;SDS011;58938;49.868;8.646;2022-07-29T09:42:40;9.27;;;4.72;;
71207;SDS011;58938;49.868;8.646;2022-07-29T09:45:06;8.13;;;5.05;;
71207;SDS011;58938;49.868;8.646;2022-07-29T09:47:43;8.45;;;4.80;;
71207;SDS011;58938;49.868;8.646;2022-07-29T09:50:11;10.20;;;5.18;;
71207;SDS011;58938;49.868;8.646;2022-07-29T09:52:47;8.53;;;4.77;;
71207;SDS011;58938;49.868;8.646;2022-07-29T09:55:14;7.45;;;4.65;;
71207;SDS011;58938;49.868;8.646;2022-07-29T09:57:40;7.47;;;4.82;;
71207;SDS011;58938;49.868;8.646;2022-07-29T10:00:10;11.13;;;5.43;;
71207;SDS011;58938;49.868;8.646;2022-07-29T10:02:40;10.18;;;5.38;;
71207;SDS011;58938;49.868;8.646;2022-07-29T10:05:30;8.52;;;5.32;;
71207;SDS011;58938;49.868;8.646;2022-07-29T10:07:55;8.25;;;5.32;;
71207;SDS011;58938;49.868;8.646;2022-07-29T10:13:02;9.33;;;4.70;;
71207;SDS011;58938;49.868;8.646;2022-07-29T10:15:29;7.80;;;4.90;;
71207;SDS011;58938;49.868;8.646;2022-07-29T10:17:57;14.85;;;5.22;;
71207;SDS011;58938;49.868;8.646;2022-07-29T10:20:24;10.95;;;5.45;;
71207;SDS011;58938;49.868;8.646;2022-07-29T10:22:51;8.10;;;4.95;;
71207;SDS011;58938;49.868;8.646;2022-07-29T10:25:18;9.73;;;5.50;;
71207;SDS011;58938;49.868;8.646;2022-07-29T10:27:45;12.13;;;6.18;;
71207;SDS011;58938;49.868;8.646;2022-07-29T10:30:12;10.10;;;5.40;;
71207;SDS011;58938;49.868;8.646;2022-07-29T10:32:44;7.93;;;5.00;;
71207;SDS011;58938;49.868;8.646;2022-07-29T10:38:07;9.20;;;4.73;;
71207;SDS011;58938;49.868;8.646;2022-07-29T10:40:45;10.75;;;5.28;;
71207;SDS011;58938;49.868;8.646;2022-07-29T10:43:49;10.63;;;5.07;;
71207;SDS011;58938;49.868;8.646;2022-07-29T10:46:16;8.10;;;5.25;;
71207;SDS011;58938;49.868;8.646;2022-07-29T10:51:51;7.50;;;5.33;;
71207;SDS011;58938;49.868;8.646;2022-07-29T10:54:17;10.15;;;4.82;;
71207;SDS011;58938;49.868;8.646;2022-07-29T10:56:43;7.10;;;4.90;;
71207;SDS011;58938;49.868;8.646;2022-07-29T11:01:49;13.70;;;5.22;;
71207;SDS011;58938;49.868;8.646;2022-07-29T11:04:16;7.50;;;5.27;;
71207;SDS011;58938;49.868;8.646;2022-07-29T11:07:07;7.82;;;5.45;;
71207;SDS011;58938;49.868;8.646;2022-07-29T11:09:33;7.72;;;5.10;;
71207;SDS011;58938;49.868;8.646;2022-07-29T11:11:59;8.07;;;5.50;;
71207;SDS011;58938;49.868;8.646;2022-07-29T11:17:19;11.02;;;5.53;;
71207;SDS011;58938;49.868;8.646;2022-07-29T11:19:45;11.10;;;5.70;;
71207;SDS011;58938;49.868;8.646;2022-07-29T11:22:12;9.55;;;4.68;;
71207;SDS011;58938;49.868;8.646;2022-07-29T11:25:13;8.25;;;4.90;;
71207;SDS011;58938;49.868;8.646;2022-07-29T11:27:44;9.32;;;5.38;;
71207;SDS011;58938;49.868;8.646;2022-07-29T11:30:10;9.00;;;5.68;;
71207;SDS011;58938;49.868;8.646;2022-07-29T11:32:40;7.63;;;4.93;;
71207;SDS011;58938;49.868;8.646;2022-07-29T11:35:28;9.23;;;4.40;;
71207;SDS011;58938;49.868;8.646;2022-07-29T11:43:54;8.63;;;5.38;;
71207;SDS011;58938;49.868;8.646;2022-07-29T11:49:11;8.90;;;4.97;;
71207;SDS011;58938;49.868;8.646;2022-07-29T11:51:37;7.85;;;5.18;;
71207;SDS011;58938;49.868;8.646;2022-07-29T11:54:03;8.48;;;4.85;;
71207;SDS011;58938;49.868;8.646;2022-07-29T11:56:30;10.00;;;5.32;;
71207;SDS011;58938;49.868;8.646;2022-07-29T11:59:02;7.50;;;5.03;;
71207;SDS011;58938;49.868;8.646;2022-07-29T12:01:29;9.73;;;4.88;;
71207;SDS011;58938;49.868;8.646;2022-07-29T12:04:04;11.60;;;5.78;;
71207;SDS011;58938;49.868;8.646;2022-07-29T12:06:31;8.17;;;5.10;;
71207;SDS011;58938;49.868;8.646;2022-07-29T12:08:58;8.68;;;5.30;;
71207;SDS011;58938;49.868;8.646;2022-07-29T12:11:23;8.82;;;5.57;;
71207;SDS011;58938;49.868;8.646;2022-07-29T12:13:50;8.15;;;5.10;;
71207;SDS011;58938;49.868;8.646;2022-07-29T12:16:16;9.77;;;5.20;;
71207;SDS011;58938;49.868;8.646;2022-07-29T12:18:57;7.85;;;4.55;;
71207;SDS011;58938;49.868;8.646;2022-07-29T12:21:27;9.18;;;5.32;;
71207;SDS011;58938;49.868;8.646;2022-07-29T12:23:55;8.55;;;5.53;;
71207;SDS011;58938;49.868;8.646;2022-07-29T12:26:21;9.23;;;5.17;;
71207;SDS011;58938;49.868;8.646;2022-07-29T12:28:47;11.32;;;5.30;;
71207;SDS011;58938;49.868;8.646;2022-07-29T12:31:13;8.15;;;6.30;;
71207;SDS011;58938;49.868;8.646;2022-07-29T12:33:40;9.27;;;5.33;;
71207;SDS011;58938;49.868;8.646;2022-07-29T12:36:06;8.18;;;5.20;;
71207;SDS011;58938;49.868;8.646;2022-07-29T12:38:33;8.18;;;5.63;;
71207;SDS011;58938;49.868;8.646;2022-07-29T12:41:02;7.82;;;5.30;;
71207;SDS011;58938;49.868;8.646;2022-07-29T12:43:29;6.97;;;5.27;;
71207;SDS011;58938;49.868;8.646;2022-07-29T12:45:55;9.52;;;5.03;;
71207;SDS011;58938;49.868;8.646;2022-07-29T12:48:37;11.88;;;4.85;;
71207;SDS011;58938;49.868;8.646;2022-07-29T12:51:05;7.95;;;4.63;;
71207;SDS011;58938;49.868;8.646;2022-07-29T12:53:35;8.25;;;5.43;;
71207;SDS011;58938;49.868;8.646;2022-07-29T12:56:01;7.43;;;4.67;;
71207;SDS011;58938;49.868;8.646;2022-07-29T12:58:29;11.45;;;5.75;;
71207;SDS011;58938;49.868;8.646;2022-07-29T13:01:02;10.52;;;5.22;;
71207;SDS011;58938;49.868;8.646;2022-07-29T13:03:44;10.23;;;4.65;;
71207;SDS011;58938;49.868;8.646;2022-07-29T13:06:32;9.50;;;5.13;;
71207;SDS011;58938;49.868;8.646;2022-07-29T13:09:13;8.80;;;4.53;;
71207;SDS011;58938;49.868;8.646;2022-07-29T13:11:44;9.75;;;4.95;;
71207;SDS011;58938;49.868;8.646;2022-07-29T13:14:12;7.45;;;4.85;;
71207;SDS011;58938;49.868;8.646;2022-07-29T13:19:36;8.38;;;4.22;;
71207;SDS011;58938;49.868;8.646;2022-07-29T13:22:10;7.47;;;4.43;;
71207;SDS011;58938;49.868;8.646;2022-07-29T13:24:56;10.90;;;4.57;;
71207;SDS011;58938;49.868;8.646;2022-07-29T13:27:31;7.70;;;4.53;;
71207;SDS011;58938;49.868;8.646;2022-07-29T13:30:00;7.55;;;4.07;;
71207;SDS011;58938;49.868;8.646;2022-07-29T13:32:27;9.80;;;4.88;;
71207;SDS011;58938;49.868;8.646;2022-07-29T13:34:54;6.90;;;4.30;;
71207;SDS011;58938;49.868;8.646;2022-07-29T13:37:21;7.70;;;4.63;;
71207;SDS011;58938;49.868;8.646;2022-07-29T13:39:46;7.00;;;4.30;;
71207;SDS011;58938;49.868;8.646;2022-07-29T13:42:12;6.67;;;4.70;;
71207;SDS011;58938;49.868;8.646;2022-07-29T13:44:39;9.73;;;4.55;;
71207;SDS011;58938;49.868;8.646;2022-07-29T13:47:05;8.65;;;4.53;;
71207;SDS011;58938;49.868;8.646;2022-07-29T13:49:35;6.97;;;5.13;;
71207;SDS011;58938;49.868;8.646;2022-07-29T13:52:00;7.35;;;4.50;;
71207;SDS011;58938;49.868;8.646;2022-07-29T13:54:27;6.75;;;4.82;;
71207;SDS011;58938;49.868;8.646;2022-07-29T13:56:53;8.20;;;5.40;;
71207;SDS011;58938;49.868;8.646;2022-07-29T13:59:19;9.50;;;4.70;;
71207;SDS011;58938;49.868;8.646;2022-07-29T14:01:44;7.50;;;4.87;;
71207;SDS011;58938;49.868;8.646;2022-07-29T14:04:10;8.80;;;4.72;;
71207;SDS011;58938;49.868;8.646;2022-07-29T14:06:36;7.15;;;4.80;;
71207;SDS011;58938;49.868;8.646;2022-07-29T14:09:03;8.10;;;4.37;;
71207;SDS011;58938;49.868;8.646;2022-07-29T14:11:33;8.98;;;4.50;;
71207;SDS011;58938;49.868;8.646;2022-07-29T14:14:00;9.70;;;4.72;;
71207;SDS011;58938;49.868;8.646;2022-07-29T14:16:25;7.77;;;4.40;;
71207;SDS011;58938;49.868;8.646;2022-07-29T14:18:51;7.70;;;4.43;;
71207;SDS011;58938;49.868;8.646;2022-07-29T14:21:17;7.85;;;4.80;;
71207;SDS011;58938;49.868;8.646;2022-07-29T14:23:43;7.10;;;4.50;;
71207;SDS011;58938;49.868;8.646;2022-07-29T14:26:09;9.40;;;4.47;;
71207;SDS011;58938;49.868;8.646;2022-07-29T14:28:34;8.37;;;4.97;;
71207;SDS011;58938;49.868;8.646;2022-07-29T14:31:00;8.65;;;4.68;;
71207;SDS011;58938;49.868;8.646;2022-07-29T14:33:26;9.47;;;4.53;;
71207;SDS011;58938;49.868;8.646;2022-07-29T14:35:51;10.03;;;4.87;;
71207;SDS011;58938;49.868;8.646;2022-07-29T14:38:17;15.20;;;11.50;;
71207;SDS011;58938;49.868;8.646;2022-07-29T14:40:42;11.43;;;7.10;;
71207;SDS011;58938;49.868;8.646;2022-07-29T14:43:08;8.40;;;4.47;;
71207;SDS011;58938;49.868;8.646;2022-07-29T14:45:34;8.17;;;5.63;;
71207;SDS011;58938;49.868;8.646;2022-07-29T14:47:59;8.40;;;5.07;;
71207;SDS011;58938;49.868;8.646;2022-07-29T14:50:25;10.90;;;6.70;;
71207;SDS011;58938;49.868;8.646;2022-07-29T14:52:51;8.20;;;5.20;;
71207;SDS011;58938;49.868;8.646;2022-07-29T14:55:17;8.27;;;4.95;;
71207;SDS011;58938;49.868;8.646;2022-07-29T14:57:43;7.73;;;4.77;;
71207;SDS011;58938;49.868;8.646;2022-07-29T15:00:08;7.30;;;5.10;;
71207;SDS011;58938;49.868;8.646;2022-07-29T15:02:35;7.50;;;4.50;;
71207;SDS011;58938;49.868;8.646;2022-07-29T15:05:00;10.15;;;7.22;;
71207;SDS011;58938;49.868;8.646;2022-07-29T15:07:27;9.30;;;5.90;;
71207;SDS011;58938;49.868;8.646;2022-07-29T15:09:52;9.23;;;4.80;;
71207;SDS011;58938;49.868;8.646;2022-07-29T15:12:18;8.25;;;4.88;;
71207;SDS011;58938;49.868;8.646;2022-07-29T15:14:44;7.97;;;5.23;;
71207;SDS011;58938;49.868;8.646;2022-07-29T15:17:09;11.63;;;5.00;;
71207;SDS011;58938;49.868;8.646;2022-07-29T15:19:35;10.83;;;5.17;;
71207;SDS011;58938;49.868;8.646;2022-07-29T15:22:01;19.35;;;12.40;;
71207;SDS011;58938;49.868;8.646;2022-07-29T15:24:26;9.83;;;6.53;;